Time;durP1;ratioP1;P1;durP2;ratioP2;P2;SDS_P1;SDS_P2;PMS_P1;PMS_P2;Temp;Humidity;BMP_temperature;BMP_pressure;BME280_temperature;BME280_humidity;BME280_pressure;Samples;Min_cycle;Max_cycle;Signal;HPM_P1;HPM_P2
2022/11/18 00:02:04;;;;;;;7.10;6.50;;;;;;;;;;4962273;28;20234;-83
2022/11/18 00:04:30;;;;;;;6.20;5.60;;;;;;;;;;4979420;28;20214;-82
2022/11/18 00:06:57;;;;;;;5.93;5.43;;;;;;;;;;4976174;28;20281;-83
2022/11/18 00:09:23;;;;;;;6.23;5.73;;;;;;;;;;4978561;28;20232;-84
2022/11/18 00:14:35;;;;;;;5.50;5.03;;;;;;;;;;4997821;28;20398;-81
2022/11/18 00:17:04;;;;;;;6.27;5.67;;;;;;;;;;4990395;28;20667;-82
2022/11/18 00:19:35;;;;;;;5.87;5.33;;;;;;;;;;4982355;28;20234;-84
2022/11/18 00:22:01;;;;;;;5.80;5.30;;;;;;;;;;4976094;28;20238;-85
2022/11/18 00:24:29;;;;;;;4.73;4.43;;;;;;;;;;4977798;28;20281;-82
2022/11/18 00:26:57;;;;;;;4.57;4.27;;;;;;;;;;4983398;28;20235;-82
2022/11/18 00:29:26;;;;;;;5.03;4.63;;;;;;;;;;4980344;28;20755;-86
2022/11/18 00:31:54;;;;;;;4.80;4.40;;;;;;;;;;4982111;28;20230;-85
2022/11/18 00:34:22;;;;;;;5.93;5.33;;;;;;;;;;4977807;28;22519;-82
2022/11/18 00:36:48;;;;;;;5.20;4.80;;;;;;;;;;4993336;28;20837;-84
2022/11/18 00:39:15;;;;;;;5.03;4.53;;;;;;;;;;4977657;28;20679;-83
2022/11/18 00:44:27;;;;;;;5.77;5.27;;;;;;;;;;4990732;28;20832;-86
2022/11/18 00:46:55;;;;;;;5.97;5.50;;;;;;;;;;4977570;28;20233;-83
2022/11/18 00:49:21;;;;;;;5.13;4.73;;;;;;;;;;4960928;28;20251;-84
2022/11/18 00:51:48;;;;;;;6.10;5.57;;;;;;;;;;4977445;28;20233;-83
2022/11/18 00:54:16;;;;;;;6.33;5.80;;;;;;;;;;4981745;28;20253;-85
2022/11/18 00:56:42;;;;;;;6.67;5.70;;;;;;;;;;4978005;28;20222;-83
2022/11/18 00:59:10;;;;;;;6.07;5.57;;;;;;;;;;4982194;28;20241;-84
2022/11/18 01:01:35;;;;;;;5.93;5.43;;;;;;;;;;4977431;28;20238;-81
2022/11/18 01:04:01;;;;;;;5.93;5.50;;;;;;;;;;4989673;28;20277;-83
2022/11/18 01:06:27;;;;;;;5.60;5.20;;;;;;;;;;4991506;28;20665;-85
2022/11/18 01:08:52;;;;;;;6.53;5.93;;;;;;;;;;4945204;28;20230;-86
2022/11/18 01:14:02;;;;;;;5.87;5.37;;;;;;;;;;4962828;28;20309;-83
2022/11/18 01:16:28;;;;;;;6.37;5.87;;;;;;;;;;4962593;28;20614;-83
2022/11/18 01:18:54;;;;;;;5.70;5.20;;;;;;;;;;4945102;28;20226;-83
2022/11/18 01:21:19;;;;;;;7.13;6.57;;;;;;;;;;4985079;28;20238;-85
2022/11/18 01:23:47;;;;;;;6.17;5.67;;;;;;;;;;4985181;28;20226;-84
2022/11/18 01:26:16;;;;;;;6.83;6.23;;;;;;;;;;4956293;28;20310;-84
2022/11/18 01:28:41;;;;;;;6.83;6.13;;;;;;;;;;4979276;28;20290;-85
2022/11/18 01:31:12;;;;;;;6.80;6.30;;;;;;;;;;4945850;28;20242;-83
2022/11/18 01:33:40;;;;;;;7.87;7.10;;;;;;;;;;4995284;28;20226;-84
2022/11/18 01:36:23;;;;;;;6.93;6.40;;;;;;;;;;4976441;28;20265;-84
2022/11/18 01:38:49;;;;;;;6.67;6.07;;;;;;;;;;4985112;28;20221;-83
2022/11/18 01:41:18;;;;;;;7.77;7.03;;;;;;;;;;4964200;28;20229;-85
2022/11/18 01:43:56;;;;;;;10.47;7.07;;;;;;;;;;4979848;28;20218;-85
2022/11/18 01:46:23;;;;;;;7.83;7.17;;;;;;;;;;5009033;28;20265;-84
2022/11/18 01:49:10;;;;;;;7.33;6.70;;;;;;;;;;4961564;28;20232;-86
2022/11/18 01:51:43;;;;;;;7.93;7.23;;;;;;;;;;4975195;28;20333;-85
2022/11/18 01:54:12;;;;;;;8.00;7.30;;;;;;;;;;4961419;28;20222;-83
2022/11/18 01:56:42;;;;;;;8.13;7.43;;;;;;;;;;4986288;28;20233;-84
2022/11/18 01:59:12;;;;;;;7.43;6.80;;;;;;;;;;4985892;28;20249;-84
2022/11/18 02:01:38;;;;;;;7.70;7.00;;;;;;;;;;4991160;28;20238;-81
2022/11/18 02:04:04;;;;;;;7.97;7.27;;;;;;;;;;5017150;28;20758;-83
2022/11/18 02:06:32;;;;;;;7.67;6.97;;;;;;;;;;4988053;28;20218;-83
2022/11/18 02:08:57;;;;;;;7.17;6.57;;;;;;;;;;4972350;28;20257;-83
2022/11/18 02:14:10;;;;;;;8.10;7.40;;;;;;;;;;5004341;28;20205;-81
2022/11/18 02:16:36;;;;;;;7.40;6.70;;;;;;;;;;5004011;28;20229;-80
2022/11/18 02:19:05;;;;;;;8.13;7.33;;;;;;;;;;5007574;28;20237;-81
2022/11/18 02:21:52;;;;;;;7.60;6.90;;;;;;;;;;4959358;28;20911;-84
2022/11/18 02:24:38;;;;;;;7.07;6.57;;;;;;;;;;5005717;28;20280;-85
2022/11/18 02:27:24;;;;;;;8.17;7.47;;;;;;;;;;5004836;28;20711;-83
2022/11/18 02:29:57;;;;;;;7.50;6.90;;;;;;;;;;5013884;28;20221;-82
2022/11/18 02:32:34;;;;;;;7.53;6.93;;;;;;;;;;5013220;28;20570;-85
2022/11/18 02:35:08;;;;;;;7.53;6.93;;;;;;;;;;4960050;28;20262;-83
2022/11/18 02:37:47;;;;;;;7.40;6.73;;;;;;;;;;4979470;28;20280;-83
2022/11/18 02:40:21;;;;;;;7.60;7.00;;;;;;;;;;4996622;28;20738;-82
2022/11/18 02:42:51;;;;;;;7.70;7.00;;;;;;;;;;4987032;28;20320;-82
2022/11/18 02:45:19;;;;;;;8.47;7.60;;;;;;;;;;4986502;28;20238;-83
2022/11/18 02:47:45;;;;;;;7.70;7.10;;;;;;;;;;4963705;28;20270;-85
2022/11/18 02:50:16;;;;;;;7.80;7.10;;;;;;;;;;4990807;28;20265;-81
2022/11/18 02:52:42;;;;;;;7.97;7.27;;;;;;;;;;4993603;28;20230;-84
2022/11/18 02:55:09;;;;;;;7.67;7.07;;;;;;;;;;4988430;28;20317;-84
2022/11/18 02:57:39;;;;;;;8.17;7.47;;;;;;;;;;4993089;28;20300;-81
2022/11/18 03:00:08;;;;;;;7.20;6.60;;;;;;;;;;5002493;28;20234;-84
2022/11/18 03:02:48;;;;;;;7.80;7.10;;;;;;;;;;4998607;28;20305;-84
2022/11/18 03:09:10;;;;;;;8.37;7.37;;;;;;;;;;4980234;28;20730;-83
2022/11/18 03:11:58;;;;;;;7.33;6.73;;;;;;;;;;5013475;28;20225;-83
2022/11/18 03:14:45;;;;;;;9.30;8.40;;;;;;;;;;4996396;28;20710;-87
2022/11/18 03:17:15;;;;;;;7.63;7.03;;;;;;;;;;4996679;28;20284;-85
2022/11/18 03:19:44;;;;;;;7.70;7.00;;;;;;;;;;4997601;28;20233;-82
2022/11/18 03:22:13;;;;;;;8.30;7.57;;;;;;;;;;5012977;28;20574;-85
2022/11/18 03:24:41;;;;;;;7.80;7.00;;;;;;;;;;4998354;28;20226;-84
2022/11/18 03:27:13;;;;;;;8.53;7.83;;;;;;;;;;4966570;28;20218;-84
2022/11/18 03:29:51;;;;;;;8.27;7.47;;;;;;;;;;5016574;28;20734;-85
2022/11/18 03:32:23;;;;;;;9.03;8.00;;;;;;;;;;4983925;28;20222;-83
2022/11/18 03:34:50;;;;;;;9.33;8.43;;;;;;;;;;4966893;28;20280;-83
2022/11/18 03:37:17;;;;;;;8.67;7.93;;;;;;;;;;4991194;28;20219;-87
2022/11/18 03:39:49;;;;;;;8.80;8.00;;;;;;;;;;4980374;28;20711;-85
2022/11/18 03:42:22;;;;;;;9.03;8.30;;;;;;;;;;4985580;28;20234;-83
2022/11/18 03:44:51;;;;;;;8.17;7.43;;;;;;;;;;4947280;28;20232;-86
2022/11/18 03:47:24;;;;;;;8.57;7.83;;;;;;;;;;4961784;28;20234;-86
2022/11/18 03:49:55;;;;;;;9.40;8.50;;;;;;;;;;4979668;28;20237;-84
2022/11/18 03:52:26;;;;;;;8.43;7.73;;;;;;;;;;4992231;28;20710;-83
2022/11/18 03:54:55;;;;;;;9.13;8.33;;;;;;;;;;4980967;28;20312;-83
2022/11/18 03:57:26;;;;;;;9.13;8.30;;;;;;;;;;4992786;28;20486;-83
2022/11/18 04:00:19;;;;;;;9.80;8.90;;;;;;;;;;4980228;28;20226;-84
2022/11/18 04:02:45;;;;;;;9.17;8.27;;;;;;;;;;4937957;28;20270;-87
2022/11/18 04:09:02;;;;;;;8.93;8.13;;;;;;;;;;4975862;28;20254;-84
2022/11/18 04:14:16;;;;;;;10.30;8.07;;;;;;;;;;4975923;28;20260;-82
2022/11/18 04:16:42;;;;;;;8.87;8.17;;;;;;;;;;4981264;28;20221;-82
2022/11/18 04:19:13;;;;;;;9.60;8.70;;;;;;;;;;4976625;28;21052;-81
2022/11/18 04:21:38;;;;;;;8.83;8.03;;;;;;;;;;4948295;28;20961;-82
2022/11/18 04:24:04;;;;;;;9.43;8.53;;;;;;;;;;4983307;28;20234;-82
2022/11/18 04:26:32;;;;;;;9.50;8.70;;;;;;;;;;4964118;28;20237;-85
2022/11/18 04:29:00;;;;;;;9.73;8.77;;;;;;;;;;4973800;28;20317;-83
2022/11/18 04:31:25;;;;;;;11.37;9.30;;;;;;;;;;4992004;28;20486;-85
2022/11/18 04:33:51;;;;;;;9.10;8.30;;;;;;;;;;4975849;28;20245;-81
2022/11/18 04:36:19;;;;;;;9.07;8.17;;;;;;;;;;4975407;28;20240;-83
2022/11/18 04:38:47;;;;;;;9.23;8.43;;;;;;;;;;4974404;28;20313;-82
2022/11/18 04:41:12;;;;;;;9.13;8.33;;;;;;;;;;4959260;28;20237;-79
2022/11/18 04:43:38;;;;;;;9.57;8.77;;;;;;;;;;4966876;28;20222;-81
2022/11/18 04:46:04;;;;;;;9.80;8.93;;;;;;;;;;4957577;28;20237;-81
2022/11/18 04:48:29;;;;;;;10.10;9.20;;;;;;;;;;4976048;28;21058;-80
2022/11/18 04:51:02;;;;;;;10.10;9.30;;;;;;;;;;5008697;28;20234;-81
2022/11/18 04:53:28;;;;;;;9.83;8.93;;;;;;;;;;4990853;28;20232;-80
2022/11/18 04:56:04;;;;;;;10.20;9.20;;;;;;;;;;4966469;28;20265;-80
2022/11/18 04:58:29;;;;;;;10.50;9.47;;;;;;;;;;4973178;28;20242;-81
2022/11/18 05:00:55;;;;;;;10.27;9.33;;;;;;;;;;4972997;28;20786;-81
2022/11/18 05:03:20;;;;;;;10.40;9.50;;;;;;;;;;4971699;28;20240;-81
2022/11/18 05:05:48;;;;;;;12.07;10.87;;;;;;;;;;4983195;28;20250;-81
2022/11/18 05:08:16;;;;;;;10.37;9.37;;;;;;;;;;4980460;28;20226;-80
2022/11/18 05:12:47;;;;;;;10.40;9.40;;;;;;;;;;4985612;28;20313;-79
2022/11/18 05:13:39;;;;;;;10.33;9.43;;;;;;;;;;4969404;28;20238;-80
2022/11/18 05:16:05;;;;;;;10.80;9.83;;;;;;;;;;4994459;28;20302;-80
2022/11/18 05:18:31;;;;;;;10.93;9.83;;;;;;;;;;4986398;28;20651;-83
2022/11/18 05:20:56;;;;;;;11.53;10.47;;;;;;;;;;4991549;28;20233;-80
2022/11/18 05:23:22;;;;;;;10.77;9.73;;;;;;;;;;4959137;28;20238;-82
2022/11/18 05:25:47;;;;;;;11.97;10.83;;;;;;;;;;4957687;28;20284;-82
2022/11/18 05:28:13;;;;;;;10.83;9.83;;;;;;;;;;4972777;28;20719;-80
2022/11/18 05:30:40;;;;;;;10.73;9.77;;;;;;;;;;4988513;28;20230;-79
2022/11/18 05:33:06;;;;;;;11.30;10.27;;;;;;;;;;4971152;28;20317;-81
2022/11/18 05:35:31;;;;;;;11.27;10.03;;;;;;;;;;4971748;28;20469;-82
2022/11/18 05:37:57;;;;;;;11.60;10.50;;;;;;;;;;4977707;28;20232;-81
2022/11/18 05:44:13;;;;;;;13.33;11.47;;;;;;;;;;4975065;28;20229;-81
2022/11/18 05:46:40;;;;;;;11.37;10.27;;;;;;;;;;4985340;28;20234;-82
2022/11/18 05:49:08;;;;;;;11.20;10.10;;;;;;;;;;4984708;28;20228;-81
2022/11/18 05:51:34;;;;;;;11.70;10.50;;;;;;;;;;4989943;28;20214;-81
2022/11/18 05:54:04;;;;;;;11.57;10.50;;;;;;;;;;4978468;28;20230;-80
2022/11/18 05:56:35;;;;;;;12.03;10.93;;;;;;;;;;4995646;28;20233;-83
2022/11/18 05:59:01;;;;;;;11.63;10.43;;;;;;;;;;5004252;28;20293;-81
2022/11/18 06:01:28;;;;;;;11.80;10.77;;;;;;;;;;4971863;28;21069;-79
2022/11/18 06:03:54;;;;;;;12.50;11.40;;;;;;;;;;5006538;28;20604;-81
2022/11/18 06:06:20;;;;;;;12.20;11.00;;;;;;;;;;4994977;23;20240;-74
2022/11/18 06:08:58;;;;;;;12.90;11.60;;;;;;;;;;4974080;28;20237;-74
2022/11/18 06:11:28;;;;;;;13.13;11.83;;;;;;;;;;4989560;28;20217;-75
2022/11/18 06:14:16;;;;;;;12.07;10.97;;;;;;;;;;4965734;28;20237;-75
2022/11/18 06:16:48;;;;;;;12.63;11.33;;;;;;;;;;4962339;28;20254;-75
2022/11/18 06:19:13;;;;;;;13.23;11.93;;;;;;;;;;4972240;28;20333;-73
2022/11/18 06:21:41;;;;;;;13.33;12.10;;;;;;;;;;4959126;28;20269;-73
2022/11/18 06:24:08;;;;;;;13.13;11.90;;;;;;;;;;4988209;28;20277;-74
2022/11/18 06:26:35;;;;;;;15.47;13.87;;;;;;;;;;4991040;28;20245;-76
2022/11/18 06:29:03;;;;;;;14.90;13.40;;;;;;;;;;4973531;28;20257;-75
2022/11/18 06:31:29;;;;;;;15.27;13.80;;;;;;;;;;4954216;28;20230;-73
2022/11/18 06:34:02;;;;;;;15.50;14.03;;;;;;;;;;4955062;28;20237;-75
2022/11/18 06:36:27;;;;;;;14.50;13.17;;;;;;;;;;4991349;28;20257;-74
2022/11/18 06:38:55;;;;;;;15.07;13.57;;;;;;;;;;4988782;28;20794;-74
2022/11/18 06:41:23;;;;;;;15.47;13.83;;;;;;;;;;4955998;28;20253;-74
2022/11/18 06:43:53;;;;;;;14.97;13.47;;;;;;;;;;4941662;28;20233;-73
2022/11/18 06:49:03;;;;;;;14.67;13.43;;;;;;;;;;4971965;28;20257;-74
2022/11/18 06:51:28;;;;;;;15.63;14.10;;;;;;;;;;4962892;28;20279;-71
2022/11/18 06:53:59;;;;;;;14.37;12.97;;;;;;;;;;4976823;28;20758;-73
2022/11/18 06:56:27;;;;;;;17.50;15.70;;;;;;;;;;4958593;28;20276;-73
2022/11/18 06:58:58;;;;;;;15.97;14.37;;;;;;;;;;4988519;28;20253;-77
2022/11/18 07:01:25;;;;;;;17.03;14.10;;;;;;;;;;4985942;28;20237;-75
2022/11/18 07:03:53;;;;;;;15.80;14.30;;;;;;;;;;4975241;28;20226;-74
2022/11/18 07:06:23;;;;;;;16.83;15.03;;;;;;;;;;4970790;28;20218;-75
2022/11/18 07:08:53;;;;;;;17.27;15.50;;;;;;;;;;4991702;28;20229;-74
2022/11/18 07:11:20;;;;;;;16.70;15.07;;;;;;;;;;4976947;28;20738;-75
2022/11/18 07:13:46;;;;;;;14.37;12.97;;;;;;;;;;4958813;28;20242;-74
2022/11/18 07:16:18;;;;;;;17.60;15.87;;;;;;;;;;4979434;28;20575;-73
2022/11/18 07:18:48;;;;;;;16.60;15.03;;;;;;;;;;4991597;23;20230;-81
2022/11/18 07:21:17;;;;;;;18.07;16.27;;;;;;;;;;4961731;28;20256;-78
2022/11/18 07:23:43;;;;;;;16.70;14.93;;;;;;;;;;4958828;28;20297;-78
2022/11/18 07:26:09;;;;;;;18.57;16.43;;;;;;;;;;4948068;28;20288;-77
2022/11/18 07:28:43;;;;;;;18.00;15.93;;;;;;;;;;4966083;28;20604;-79
2022/11/18 07:31:14;;;;;;;16.57;15.07;;;;;;;;;;4974670;28;20219;-78
2022/11/18 07:33:40;;;;;;;19.17;17.17;;;;;;;;;;4940469;28;20237;-79
2022/11/18 07:36:10;;;;;;;18.87;16.87;;;;;;;;;;4933828;28;20225;-78
2022/11/18 07:38:39;;;;;;;16.83;15.07;;;;;;;;;;4927575;28;20226;-80
2022/11/18 07:41:10;;;;;;;18.13;16.33;;;;;;;;;;4976158;23;20235;-75
2022/11/18 07:43:40;;;;;;;18.87;17.03;;;;;;;;;;4939167;28;20344;-76
2022/11/18 07:46:20;;;;;;;19.20;17.20;;;;;;;;;;4947449;28;20673;-75
2022/11/18 07:48:48;;;;;;;19.40;17.40;;;;;;;;;;4957081;23;20204;-81
2022/11/18 07:51:18;;;;;;;19.57;16.83;;;;;;;;;;4972511;28;20248;-83
2022/11/18 07:53:44;;;;;;;18.83;16.97;;;;;;;;;;4967681;28;20228;-81
2022/11/18 07:56:09;;;;;;;20.07;18.17;;;;;;;;;;4983278;23;20716;-74
2022/11/18 07:58:38;;;;;;;18.97;17.07;;;;;;;;;;4952372;28;20230;-74
2022/11/18 08:01:08;;;;;;;20.43;18.37;;;;;;;;;;4981261;28;20234;-73
2022/11/18 08:03:33;;;;;;;19.13;17.10;;;;;;;;;;4964658;28;20266;-73
2022/11/18 08:09:00;;;;;;;17.93;16.23;;;;;;;;;;4999437;28;20320;-79
2022/11/18 08:11:25;;;;;;;18.93;17.00;;;;;;;;;;4967218;28;20268;-80
2022/11/18 08:13:51;;;;;;;18.70;16.90;;;;;;;;;;4982695;28;20233;-79
2022/11/18 08:16:21;;;;;;;18.97;16.93;;;;;;;;;;4990436;28;20234;-78
2022/11/18 08:18:47;;;;;;;18.77;16.97;;;;;;;;;;4980564;28;20230;-77
2022/11/18 08:21:13;;;;;;;15.73;14.07;;;;;;;;;;4958656;28;20308;-82
2022/11/18 08:23:58;;;;;;;18.27;16.47;;;;;;;;;;4956071;28;20222;-77
2022/11/18 08:26:24;;;;;;;16.60;14.93;;;;;;;;;;4983671;28;20314;-77
2022/11/18 08:28:52;;;;;;;16.43;14.90;;;;;;;;;;4975698;28;20289;-79
2022/11/18 08:31:24;;;;;;;16.33;14.80;;;;;;;;;;4973045;28;20230;-77
2022/11/18 08:33:57;;;;;;;15.70;14.20;;;;;;;;;;4972470;28;20229;-82
2022/11/18 08:36:26;;;;;;;15.60;14.10;;;;;;;;;;4974141;28;20261;-78
2022/11/18 08:39:10;;;;;;;16.20;14.70;;;;;;;;;;4977774;28;20251;-79
2022/11/18 08:41:43;;;;;;;16.33;14.80;;;;;;;;;;4966140;28;20237;-80
2022/11/18 08:44:13;;;;;;;16.37;14.83;;;;;;;;;;4973449;28;20258;-78
2022/11/18 08:46:41;;;;;;;16.23;14.53;;;;;;;;;;4961148;28;20234;-80
2022/11/18 08:49:06;;;;;;;15.37;13.77;;;;;;;;;;4963168;28;20229;-80
2022/11/18 08:51:32;;;;;;;16.57;14.87;;;;;;;;;;4978811;28;20229;-79
2022/11/18 08:54:01;;;;;;;15.47;13.87;;;;;;;;;;4991431;28;20237;-78
2022/11/18 08:56:26;;;;;;;14.97;13.57;;;;;;;;;;4958520;28;20265;-81
2022/11/18 08:58:53;;;;;;;15.27;13.77;;;;;;;;;;4984477;28;20253;-81
2022/11/18 09:01:18;;;;;;;13.70;12.30;;;;;;;;;;4947664;28;20248;-78
2022/11/18 09:03:44;;;;;;;13.07;11.97;;;;;;;;;;4963069;28;20268;-80
2022/11/18 09:06:11;;;;;;;12.70;11.60;;;;;;;;;;4988948;23;20234;-77
2022/11/18 09:08:37;;;;;;;15.27;12.53;;;;;;;;;;4970071;28;20591;-77
2022/11/18 09:11:26;;;;;;;14.33;12.90;;;;;;;;;;4938176;28;20234;-75
2022/11/18 09:14:03;;;;;;;13.37;12.07;;;;;;;;;;4958637;28;20233;-75
2022/11/18 09:16:32;;;;;;;13.83;12.53;;;;;;;;;;4970674;28;20233;-77
2022/11/18 09:19:00;;;;;;;13.93;12.63;;;;;;;;;;4946177;28;20222;-76
2022/11/18 09:21:26;;;;;;;14.60;13.20;;;;;;;;;;4947869;28;20221;-77
2022/11/18 09:23:51;;;;;;;13.73;12.37;;;;;;;;;;4949832;28;20281;-77
2022/11/18 09:26:21;;;;;;;13.20;12.00;;;;;;;;;;4975524;28;20238;-77
2022/11/18 09:28:51;;;;;;;13.10;11.83;;;;;;;;;;4925395;28;20249;-77
2022/11/18 09:31:16;;;;;;;11.23;10.23;;;;;;;;;;4959547;28;20217;-77
2022/11/18 09:33:44;;;;;;;11.73;10.63;;;;;;;;;;4944326;28;20233;-78
2022/11/18 09:36:12;;;;;;;12.67;11.47;;;;;;;;;;4941555;28;20732;-77
2022/11/18 09:38:42;;;;;;;11.67;10.57;;;;;;;;;;4940471;28;20380;-76
2022/11/18 09:41:29;;;;;;;11.77;10.77;;;;;;;;;;4937969;28;20241;-77
2022/11/18 09:44:29;;;;;;;12.03;10.83;;;;;;;;;;5011247;28;20665;-77
2022/11/18 09:47:16;;;;;;;12.17;11.07;;;;;;;;;;4934879;28;20377;-78
2022/11/18 09:49:46;;;;;;;13.07;11.83;;;;;;;;;;4972646;28;20720;-77
2022/11/18 09:52:32;;;;;;;12.47;11.37;;;;;;;;;;4941432;28;20280;-77
2022/11/18 09:55:00;;;;;;;12.93;11.63;;;;;;;;;;4941148;28;20226;-77
2022/11/18 09:57:50;;;;;;;12.10;10.90;;;;;;;;;;4953889;28;20233;-77
2022/11/18 10:00:17;;;;;;;11.87;10.53;;;;;;;;;;4958108;28;20416;-77
2022/11/18 10:03:03;;;;;;;12.90;11.63;;;;;;;;;;4945380;28;20233;-78
2022/11/18 10:05:37;;;;;;;12.17;11.03;;;;;;;;;;4969265;28;20254;-77
2022/11/18 10:08:13;;;;;;;13.37;12.17;;;;;;;;;;4960535;28;20315;-79
2022/11/18 10:11:01;;;;;;;13.27;12.07;;;;;;;;;;4968435;28;20260;-78
2022/11/18 10:13:36;;;;;;;12.67;11.47;;;;;;;;;;4923693;28;20255;-78
2022/11/18 10:16:18;;;;;;;12.67;11.47;;;;;;;;;;4964944;28;20237;-77
2022/11/18 10:18:55;;;;;;;12.67;11.47;;;;;;;;;;4971846;28;20261;-78
2022/11/18 10:21:28;;;;;;;14.30;13.00;;;;;;;;;;4958581;28;20237;-78
2022/11/18 10:24:18;;;;;;;13.23;11.87;;;;;;;;;;4971800;28;20270;-78
2022/11/18 10:26:44;;;;;;;13.13;11.90;;;;;;;;;;4958478;28;20427;-78
2022/11/18 10:29:10;;;;;;;14.30;13.00;;;;;;;;;;4922820;28;20286;-79
2022/11/18 10:31:51;;;;;;;13.87;12.57;;;;;;;;;;4924103;28;20617;-78
2022/11/18 10:34:17;;;;;;;13.87;12.57;;;;;;;;;;4925135;28;20218;-78
2022/11/18 10:36:43;;;;;;;14.20;12.90;;;;;;;;;;4949669;28;20288;-78
2022/11/18 10:39:13;;;;;;;14.93;13.20;;;;;;;;;;4930210;28;20226;-78
2022/11/18 10:41:48;;;;;;;13.50;12.27;;;;;;;;;;4937438;28;20289;-79
2022/11/18 10:44:37;;;;;;;14.17;12.93;;;;;;;;;;4938198;28;20229;-78
2022/11/18 10:47:15;;;;;;;15.33;13.83;;;;;;;;;;4957061;28;20235;-78
2022/11/18 10:49:41;;;;;;;14.37;12.90;;;;;;;;;;4941685;28;20684;-77
2022/11/18 10:52:13;;;;;;;16.27;14.67;;;;;;;;;;4936652;28;20237;-79
2022/11/18 10:54:40;;;;;;;16.33;14.80;;;;;;;;;;4971409;28;20709;-79
2022/11/18 10:57:19;;;;;;;16.00;14.50;;;;;;;;;;4937798;28;20294;-78
2022/11/18 10:59:49;;;;;;;16.43;14.93;;;;;;;;;;4977321;28;20237;-79
2022/11/18 11:02:34;;;;;;;15.80;14.30;;;;;;;;;;4966857;28;20235;-80
2022/11/18 11:05:15;;;;;;;16.17;14.57;;;;;;;;;;4916974;28;20226;-78
2022/11/18 11:07:43;;;;;;;15.87;14.43;;;;;;;;;;4955660;29;20262;-78
2022/11/18 11:10:12;;;;;;;19.23;13.97;;;;;;;;;;4926254;28;20218;-79
2022/11/18 11:12:46;;;;;;;16.33;14.73;;;;;;;;;;4951025;28;20248;-78
2022/11/18 11:15:23;;;;;;;17.27;15.47;;;;;;;;;;4964679;28;20219;-77
2022/11/18 11:20:42;;;;;;;16.83;15.23;;;;;;;;;;4945767;28;20239;-78
2022/11/18 11:23:12;;;;;;;16.37;14.90;;;;;;;;;;4939779;28;20235;-77
2022/11/18 11:25:50;;;;;;;17.23;15.73;;;;;;;;;;4947217;29;20609;-79
2022/11/18 11:28:16;;;;;;;16.93;15.33;;;;;;;;;;4955994;28;20227;-77
2022/11/18 11:30:54;;;;;;;17.37;15.57;;;;;;;;;;4974105;28;20755;-77
2022/11/18 11:33:38;;;;;;;16.70;15.03;;;;;;;;;;4925721;28;21322;-77
2022/11/18 11:36:16;;;;;;;15.33;14.00;;;;;;;;;;4912276;28;20740;-78
2022/11/18 11:39:22;;;;;;;14.70;13.20;;;;;;;;;;4979745;28;20241;-75
2022/11/18 11:41:58;;;;;;;15.13;13.73;;;;;;;;;;4961811;28;20238;-76
2022/11/18 11:44:45;;;;;;;14.97;13.57;;;;;;;;;;4943357;28;21068;-74
2022/11/18 11:47:55;;;;;;;14.20;12.90;;;;;;;;;;4944149;28;20624;-76
2022/11/18 11:50:21;;;;;;;14.03;12.77;;;;;;;;;;4936197;28;20215;-74
2022/11/18 11:53:20;;;;;;;13.20;12.00;;;;;;;;;;4946507;28;20261;-74
2022/11/18 11:56:16;;;;;;;14.80;13.33;;;;;;;;;;4963468;28;20238;-75
2022/11/18 11:59:00;;;;;;;14.93;13.53;;;;;;;;;;4941033;28;20222;-75
2022/11/18 12:01:34;;;;;;;15.20;13.80;;;;;;;;;;4943886;28;20309;-75
2022/11/18 12:04:10;;;;;;;14.00;12.80;;;;;;;;;;4978869;28;20233;-74
2022/11/18 12:06:36;;;;;;;15.40;13.90;;;;;;;;;;4984306;28;20237;-74
2022/11/18 12:09:11;;;;;;;15.33;13.97;;;;;;;;;;4939890;28;20246;-73
2022/11/18 12:11:43;;;;;;;14.23;12.93;;;;;;;;;;4970346;28;20233;-73
2022/11/18 12:14:34;;;;;;;14.30;13.07;;;;;;;;;;4957091;28;20619;-74
2022/11/18 12:17:13;;;;;;;14.53;13.20;;;;;;;;;;4959725;28;20225;-73
2022/11/18 12:19:43;;;;;;;14.37;13.00;;;;;;;;;;4965527;28;20218;-73
2022/11/18 12:22:09;;;;;;;14.80;13.50;;;;;;;;;;4984589;28;20230;-74
2022/11/18 12:24:38;;;;;;;14.57;13.13;;;;;;;;;;4958631;28;20280;-73
2022/11/18 12:27:05;;;;;;;14.57;13.07;;;;;;;;;;4970944;28;20226;-74
2022/11/18 12:29:49;;;;;;;14.77;13.40;;;;;;;;;;4963840;28;20225;-73
2022/11/18 12:32:34;;;;;;;15.30;13.90;;;;;;;;;;4967983;28;20269;-74
2022/11/18 12:35:05;;;;;;;14.67;13.27;;;;;;;;;;4972631;28;20233;-73
2022/11/18 12:37:31;;;;;;;15.90;14.20;;;;;;;;;;4950859;28;20234;-73
2022/11/18 12:39:57;;;;;;;17.40;15.57;;;;;;;;;;5008197;28;20380;-73
2022/11/18 12:45:41;;;;;;;16.27;14.70;;;;;;;;;;5003809;28;20225;-74
2022/11/18 12:48:29;;;;;;;15.77;14.27;;;;;;;;;;4976500;28;20312;-74
2022/11/18 12:50:58;;;;;;;15.63;14.03;;;;;;;;;;4966681;28;20230;-73
2022/11/18 12:53:39;;;;;;;16.80;15.10;;;;;;;;;;4969384;28;20237;-74
2022/11/18 12:56:20;;;;;;;15.43;14.00;;;;;;;;;;4962078;28;20326;-73
2022/11/18 12:58:46;;;;;;;15.53;13.93;;;;;;;;;;4958053;28;20245;-74
2022/11/18 13:01:15;;;;;;;14.90;13.40;;;;;;;;;;4944631;28;20301;-74
2022/11/18 13:03:45;;;;;;;15.90;14.40;;;;;;;;;;4978549;28;20308;-74
2022/11/18 13:06:31;;;;;;;15.73;14.23;;;;;;;;;;4971555;28;20226;-75
2022/11/18 13:08:59;;;;;;;14.37;12.97;;;;;;;;;;4980407;28;20767;-75
2022/11/18 13:11:44;;;;;;;15.57;14.07;;;;;;;;;;4948157;28;20737;-74
2022/11/18 13:20:40;;;;;;;12.30;11.27;;;;;;;;;;4970539;28;20851;-74
2022/11/18 13:25:52;;;;;;;13.37;12.17;;;;;;;;;;4975178;28;20313;-74
2022/11/18 13:29:05;;;;;;;14.17;12.87;;;;;;;;;;4952328;28;20244;-76
2022/11/18 13:31:54;;;;;;;12.77;11.67;;;;;;;;;;4932202;28;20227;-76
2022/11/18 13:34:24;;;;;;;12.83;11.70;;;;;;;;;;4969935;28;20318;-77
2022/11/18 13:36:50;;;;;;;13.57;12.07;;;;;;;;;;4943438;28;20272;-77
2022/11/18 13:39:29;;;;;;;13.67;12.37;;;;;;;;;;4974292;28;20618;-78
2022/11/18 13:42:02;;;;;;;12.23;11.23;;;;;;;;;;4944026;28;20225;-76
2022/11/18 13:44:35;;;;;;;14.53;12.00;;;;;;;;;;4929942;28;20252;-74
2022/11/18 13:47:12;;;;;;;12.83;11.70;;;;;;;;;;4941407;28;20222;-75
2022/11/18 13:49:49;;;;;;;12.07;10.97;;;;;;;;;;4978228;28;20234;-76
2022/11/18 13:52:56;;;;;;;11.13;10.13;;;;;;;;;;5003964;28;20209;-75
2022/11/18 13:55:26;;;;;;;10.30;9.40;;;;;;;;;;4916800;28;20225;-74
2022/11/18 13:58:19;;;;;;;12.13;10.93;;;;;;;;;;4951145;28;20227;-75
2022/11/18 14:01:05;;;;;;;16.63;10.63;;;;;;;;;;4960870;28;20283;-76
2022/11/18 14:03:36;;;;;;;11.60;10.60;;;;;;;;;;4958724;28;20234;-74
2022/11/18 14:06:04;;;;;;;10.87;9.83;;;;;;;;;;4968014;28;20235;-74
2022/11/18 14:08:34;;;;;;;11.03;10.03;;;;;;;;;;4941599;28;20631;-75
2022/11/18 14:11:00;;;;;;;11.10;10.03;;;;;;;;;;4943135;28;20227;-74
2022/11/18 14:13:27;;;;;;;10.37;9.57;;;;;;;;;;4921355;28;20229;-77
2022/11/18 14:15:57;;;;;;;10.23;9.43;;;;;;;;;;4966872;28;20274;-74
2022/11/18 14:18:34;;;;;;;10.30;9.30;;;;;;;;;;4944130;28;20296;-74
2022/11/18 14:21:03;;;;;;;9.70;8.80;;;;;;;;;;4957147;28;20214;-76
2022/11/18 14:23:33;;;;;;;9.40;8.60;;;;;;;;;;4944454;28;20317;-76
2022/11/18 14:26:03;;;;;;;9.20;8.40;;;;;;;;;;4928007;28;20272;-76
2022/11/18 14:28:32;;;;;;;8.83;8.10;;;;;;;;;;4934166;28;20222;-75
2022/11/18 14:31:25;;;;;;;9.50;8.50;;;;;;;;;;4950629;28;20898;-75
2022/11/18 14:34:17;;;;;;;8.17;7.47;;;;;;;;;;4969133;28;20242;-76
2022/11/18 14:36:45;;;;;;;8.17;7.47;;;;;;;;;;4945651;28;20273;-75
2022/11/18 14:39:32;;;;;;;8.30;7.60;;;;;;;;;;4923848;28;20237;-74
2022/11/18 14:42:03;;;;;;;8.30;7.50;;;;;;;;;;4926593;28;20312;-76
2022/11/18 14:44:32;;;;;;;7.60;6.73;;;;;;;;;;4933696;28;20246;-76
2022/11/18 14:47:09;;;;;;;7.77;7.07;;;;;;;;;;4943937;28;20822;-76
2022/11/18 14:49:39;;;;;;;7.33;6.73;;;;;;;;;;4936347;28;20252;-76
2022/11/18 14:52:05;;;;;;;7.57;6.87;;;;;;;;;;4948796;28;20223;-75
2022/11/18 14:54:32;;;;;;;6.80;6.20;;;;;;;;;;4940431;28;20700;-77
2022/11/18 14:57:02;;;;;;;6.73;6.10;;;;;;;;;;4958112;28;20227;-76
2022/11/18 14:59:32;;;;;;;7.83;7.00;;;;;;;;;;4935502;28;20226;-75
2022/11/18 15:02:02;;;;;;;6.80;6.20;;;;;;;;;;4926131;28;20600;-76
2022/11/18 15:04:28;;;;;;;6.90;6.30;;;;;;;;;;4925936;28;20266;-75
2022/11/18 15:06:56;;;;;;;5.87;5.37;;;;;;;;;;4921058;28;20246;-76
2022/11/18 15:09:24;;;;;;;6.60;5.93;;;;;;;;;;4943500;28;20586;-77
2022/11/18 15:11:54;;;;;;;6.50;5.90;;;;;;;;;;4943585;28;20253;-74
2022/11/18 15:14:23;;;;;;;11.77;6.33;;;;;;;;;;4935312;28;20306;-76
2022/11/18 15:16:49;;;;;;;5.67;4.70;;;;;;;;;;4924019;28;20232;-76
2022/11/18 15:19:17;;;;;;;5.63;5.13;;;;;;;;;;4956403;28;20269;-75
2022/11/18 15:21:45;;;;;;;5.40;4.87;;;;;;;;;;4942983;28;20226;-76
2022/11/18 15:24:13;;;;;;;5.60;5.10;;;;;;;;;;4946740;28;20309;-74
2022/11/18 15:26:43;;;;;;;8.30;5.13;;;;;;;;;;4930813;28;20230;-75
2022/11/18 15:29:17;;;;;;;6.40;5.23;;;;;;;;;;4951617;28;20295;-76
2022/11/18 15:31:45;;;;;;;5.80;5.30;;;;;;;;;;4930496;28;20262;-76
2022/11/18 15:34:10;;;;;;;6.90;5.27;;;;;;;;;;4937307;28;20710;-77
2022/11/18 15:36:36;;;;;;;5.83;5.33;;;;;;;;;;4953791;28;20231;-76
2022/11/18 15:39:02;;;;;;;5.50;5.00;;;;;;;;;;4929568;28;20739;-75
2022/11/18 15:41:28;;;;;;;6.90;5.30;;;;;;;;;;4944162;28;20256;-76